Time;durP1;ratioP1;P1;durP2;ratioP2;P2;SDS_P1;SDS_P2;PMS_P1;PMS_P2;Temp;Humidity;BMP_temperature;BMP_pressure;BME280_temperature;BME280_humidity;BME280_pressure;Samples;Min_cycle;Max_cycle;Signal;HPM_P1;HPM_P2
2022/10/08 00:01:18;;;;;;;3.42;2.47;;;;;;;24.53;44.08;97314.97;5013829;28;20053;-39
2022/10/08 00:03:47;;;;;;;2.92;2.38;;;;;;;24.42;44.16;97306.59;5013684;28;20022;-39
2022/10/08 00:06:25;;;;;;;3.05;2.15;;;;;;;24.51;43.93;97309.91;5013784;28;20093;-40
2022/10/08 00:08:56;;;;;;;3.33;2.60;;;;;;;24.50;44.04;97305.63;5013586;28;20033;-41
2022/10/08 00:11:27;;;;;;;5.68;2.22;;;;;;;24.42;44.07;97307.34;5013715;28;20026;-41
2022/10/08 00:13:54;;;;;;;2.90;2.40;;;;;;;24.37;44.13;97305.31;5013604;28;20033;-40
2022/10/08 00:16:24;;;;;;;4.55;2.65;;;;;;;24.47;44.04;97297.56;5013587;28;20033;-40
2022/10/08 00:18:52;;;;;;;4.80;2.80;;;;;;;24.46;44.19;97298.81;5012641;28;20367;-39
2022/10/08 00:21:35;;;;;;;4.82;2.60;;;;;;;24.39;44.31;97304.81;5013683;28;20465;-40
2022/10/08 00:24:02;;;;;;;3.50;2.33;;;;;;;24.49;44.10;97301.31;5013768;28;20037;-39
2022/10/08 00:26:30;;;;;;;4.28;2.47;;;;;;;24.47;44.19;97295.53;5013551;28;20026;-40
2022/10/08 00:28:58;;;;;;;3.85;3.08;;;;;;;24.50;44.32;97299.31;5012582;28;20033;-40
2022/10/08 00:31:28;;;;;;;4.25;2.70;;;;;;;24.44;44.43;97291.00;5013646;28;20433;-41
2022/10/08 00:33:56;;;;;;;4.93;2.90;;;;;;;24.48;44.34;97285.94;5013422;28;20389;-41
2022/10/08 00:36:26;;;;;;;4.38;2.83;;;;;;;24.39;44.58;97286.16;5013269;28;20033;-41
2022/10/08 00:39:06;;;;;;;3.30;2.70;;;;;;;24.41;44.66;97288.44;5013613;28;20049;-40
2022/10/08 00:41:36;;;;;;;3.17;2.58;;;;;;;24.41;44.57;97280.88;5013171;28;20061;-41
2022/10/08 00:44:03;;;;;;;3.10;2.63;;;;;;;24.41;44.67;97275.34;5013426;28;20452;-40
2022/10/08 00:46:33;;;;;;;3.83;2.63;;;;;;;24.44;44.55;97268.81;5013570;28;20033;-39
2022/10/08 00:49:21;;;;;;;3.88;3.10;;;;;;;24.36;44.75;97272.56;5013537;28;20045;-42
2022/10/08 00:51:53;;;;;;;3.15;2.85;;;;;;;24.35;44.81;97263.50;5013243;28;20100;-40
2022/10/08 00:54:20;;;;;;;3.03;2.53;;;;;;;24.34;44.89;97264.75;5013247;28;20028;-41
2022/10/08 00:56:52;;;;;;;4.85;2.88;;;;;;;24.38;45.00;97259.69;5013123;28;20030;-41
2022/10/08 00:59:19;;;;;;;4.82;3.05;;;;;;;24.33;45.08;97263.22;5013311;28;20386;-40
2022/10/08 01:01:45;;;;;;;3.45;3.13;;;;;;;24.33;45.13;97258.44;5013400;28;20386;-41
2022/10/08 01:04:13;;;;;;;4.57;3.00;;;;;;;24.37;45.14;97258.19;5016123;28;20032;-41
2022/10/08 01:06:48;;;;;;;3.67;2.80;;;;;;;24.31;45.28;97249.84;5016830;28;20389;-39
2022/10/08 01:09:19;;;;;;;5.57;3.50;;;;;;;24.32;45.22;97254.16;5017058;28;20497;-39
2022/10/08 01:11:57;;;;;;;3.17;2.88;;;;;;;24.37;45.08;97249.09;5016750;28;20469;-40
2022/10/08 01:15:00;;;;;;;5.88;3.00;;;;;;;24.27;45.34;97254.88;5016591;28;20022;-41
2022/10/08 01:17:50;;;;;;;4.07;2.87;;;;;;;24.34;45.20;97245.34;5014638;28;20133;-39
2022/10/08 01:20:42;;;;;;;4.60;3.45;;;;;;;24.31;45.33;97240.78;5014644;28;20113;-39
2022/10/08 01:23:15;;;;;;;3.85;2.92;;;;;;;24.36;45.46;97242.78;5014413;28;20038;-40
2022/10/08 01:25:51;;;;;;;5.93;3.40;;;;;;;24.30;45.48;97242.03;5014266;28;20045;-41
2022/10/08 01:28:37;;;;;;;4.78;3.35;;;;;;;24.34;45.38;97242.56;5014352;28;20225;-40
2022/10/08 01:31:12;;;;;;;3.58;2.97;;;;;;;24.34;45.25;97240.56;4997978;28;20518;-40
2022/10/08 01:33:56;;;;;;;3.75;3.28;;;;;;;24.37;45.33;97241.53;5014555;28;20038;-40
2022/10/08 01:36:23;;;;;;;3.70;3.25;;;;;;;24.30;45.31;97242.03;5014409;28;20049;-39
2022/10/08 01:38:53;;;;;;;4.65;3.20;;;;;;;24.29;45.42;97237.75;5013924;28;20046;-40
2022/10/08 01:41:23;;;;;;;4.60;3.10;;;;;;;24.29;45.44;97234.97;5014246;28;20088;-37
2022/10/08 01:44:06;;;;;;;6.60;3.45;;;;;;;24.28;45.66;97231.44;5014469;28;20108;-41
2022/10/08 01:46:33;;;;;;;3.97;2.95;;;;;;;24.28;45.32;97225.13;5013787;28;20509;-40
2022/10/08 01:49:06;;;;;;;3.75;3.05;;;;;;;24.28;45.59;97230.69;5014194;28;20038;-41
2022/10/08 01:51:38;;;;;;;4.93;3.17;;;;;;;24.27;45.49;97231.94;5014091;28;20034;-37
2022/10/08 01:54:07;;;;;;;3.90;3.10;;;;;;;24.23;45.51;97217.59;5016014;28;20406;-38
2022/10/08 01:56:35;;;;;;;4.28;3.17;;;;;;;24.27;45.58;97212.53;5015687;28;20360;-40
2022/10/08 01:59:13;;;;;;;4.38;3.22;;;;;;;24.21;45.73;97206.19;5015673;28;20065;-39
2022/10/08 02:01:48;;;;;;;4.35;3.28;;;;;;;24.28;45.54;97205.75;5015998;28;20053;-38
2022/10/08 02:04:33;;;;;;;4.15;3.25;;;;;;;24.29;45.44;97207.25;5015767;28;20089;-41
2022/10/08 02:07:01;;;;;;;4.95;3.60;;;;;;;24.26;45.69;97203.47;5014656;28;20022;-41
2022/10/08 02:09:28;;;;;;;5.50;3.55;;;;;;;24.29;45.73;97204.47;5015389;28;20462;-41
2022/10/08 02:11:54;;;;;;;4.28;3.35;;;;;;;24.30;45.42;97194.91;5014494;28;20034;-41
2022/10/08 02:14:24;;;;;;;4.47;3.17;;;;;;;24.22;45.61;97202.19;5014801;28;20025;-40
2022/10/08 02:16:59;;;;;;;5.82;3.63;;;;;;;24.20;45.89;97201.91;5015459;28;20049;-40
2022/10/08 02:19:45;;;;;;;5.57;3.80;;;;;;;24.16;45.82;97191.06;5015437;28;20068;-41
2022/10/08 02:22:16;;;;;;;5.43;3.78;;;;;;;24.20;45.89;97199.13;5015465;28;20036;-38
2022/10/08 02:24:49;;;;;;;6.45;3.58;;;;;;;24.17;45.79;97194.59;5015394;28;20029;-39
2022/10/08 02:27:22;;;;;;;4.25;3.40;;;;;;;24.13;46.07;97205.16;5015325;28;20105;-41
2022/10/08 02:30:01;;;;;;;4.75;3.80;;;;;;;24.14;46.08;97199.09;5015163;28;20037;-40
2022/10/08 02:32:35;;;;;;;4.80;3.63;;;;;;;24.21;45.84;97195.13;5014230;28;20466;-40
2022/10/08 02:35:10;;;;;;;4.43;3.30;;;;;;;24.20;45.91;97201.91;5015158;28;20026;-40
2022/10/08 02:37:52;;;;;;;4.82;3.85;;;;;;;24.15;46.19;97208.94;5015086;28;20018;-40
2022/10/08 02:40:19;;;;;;;5.18;3.53;;;;;;;24.12;46.05;97196.06;5015040;28;20046;-39
2022/10/08 02:42:51;;;;;;;4.70;3.72;;;;;;;24.13;46.04;97192.03;5014881;28;20034;-41
2022/10/08 02:45:25;;;;;;;4.60;3.50;;;;;;;24.09;46.33;97183.22;5015168;28;20382;-38
2022/10/08 02:47:58;;;;;;;4.68;3.55;;;;;;;24.12;46.32;97184.22;5027905;28;20266;-41
2022/10/08 02:50:26;;;;;;;6.82;4.35;;;;;;;24.14;46.00;97178.94;5035018;28;20048;-41
2022/10/08 02:52:52;;;;;;;4.88;3.85;;;;;;;24.06;46.38;97183.47;5034504;28;20092;-39
2022/10/08 02:55:36;;;;;;;4.18;3.65;;;;;;;24.13;46.36;97180.19;5034593;28;20033;-41
2022/10/08 02:58:07;;;;;;;5.53;3.88;;;;;;;24.10;46.01;97170.91;5034470;28;20060;-39
2022/10/08 03:00:38;;;;;;;4.10;3.40;;;;;;;24.04;46.36;97177.66;5034553;28;20064;-39
2022/10/08 03:03:19;;;;;;;4.90;3.83;;;;;;;24.08;46.32;97186.50;5034259;28;20421;-41
2022/10/08 03:05:47;;;;;;;4.50;3.50;;;;;;;24.14;46.21;97178.94;5034301;28;20018;-38
2022/10/08 03:08:14;;;;;;;6.25;4.20;;;;;;;24.12;46.23;97178.69;5034418;28;20075;-39
2022/10/08 03:10:42;;;;;;;6.82;4.03;;;;;;;24.16;46.07;97181.97;5034188;28;20405;-38
2022/10/08 03:13:09;;;;;;;6.22;4.32;;;;;;;24.09;46.48;97182.47;5034140;28;20025;-37
2022/10/08 03:15:36;;;;;;;5.88;4.38;;;;;;;24.12;46.29;97176.69;5034007;28;20033;-37
2022/10/08 03:18:05;;;;;;;5.15;4.10;;;;;;;24.12;46.22;97175.91;5034338;28;20026;-38
2022/10/08 03:20:31;;;;;;;5.15;4.05;;;;;;;24.04;46.66;97191.50;5034182;28;20382;-37
2022/10/08 03:23:00;;;;;;;4.55;4.05;;;;;;;24.11;46.42;97182.75;5033903;28;20022;-39
2022/10/08 03:25:26;;;;;;;6.47;5.22;;;;;;;24.05;46.63;97187.50;5033883;28;20108;-41
2022/10/08 03:27:51;;;;;;;4.85;4.28;;;;;;;24.04;46.73;97191.50;5034072;28;20152;-40
2022/10/08 03:30:17;;;;;;;4.80;4.13;;;;;;;24.12;46.45;97193.31;5033862;28;20028;-40
2022/10/08 03:32:42;;;;;;;5.53;4.95;;;;;;;24.05;46.65;97193.78;5033787;28;20441;-40
2022/10/08 03:35:08;;;;;;;6.18;4.22;;;;;;;24.05;46.59;97204.13;5033989;28;20032;-42
2022/10/08 03:37:33;;;;;;;4.63;3.60;;;;;;;23.98;46.57;97199.81;5033622;28;20018;-41
2022/10/08 03:39:59;;;;;;;5.68;4.28;;;;;;;23.95;46.79;97193.25;5033507;28;20045;-38
2022/10/08 03:42:24;;;;;;;5.20;4.07;;;;;;;23.94;46.54;97193.75;5033937;28;20108;-38
2022/10/08 03:44:50;;;;;;;6.75;4.25;;;;;;;24.03;46.29;97192.78;5033830;28;20017;-40
2022/10/08 03:47:15;;;;;;;4.93;4.32;;;;;;;24.04;46.36;97191.50;5033777;28;20021;-40
2022/10/08 03:49:41;;;;;;;6.30;4.10;;;;;;;23.99;46.55;97188.22;5033616;28;20057;-41
2022/10/08 03:52:06;;;;;;;6.45;4.28;;;;;;;24.02;46.33;97189.25;5033556;28;20428;-40
2022/10/08 03:54:34;;;;;;;5.88;4.50;;;;;;;23.98;46.43;97183.19;5033337;28;20429;-38
2022/10/08 03:56:59;;;;;;;5.40;4.45;;;;;;;23.96;46.49;97183.69;5033601;28;20025;-38
2022/10/08 03:59:25;;;;;;;5.13;4.60;;;;;;;23.92;46.65;97185.94;5033407;28;20426;-40
2022/10/08 04:01:50;;;;;;;6.47;5.03;;;;;;;24.05;46.42;97176.41;5033445;28;20021;-39
2022/10/08 04:04:16;;;;;;;5.10;4.10;;;;;;;23.99;46.55;97184.69;5033518;28;20381;-39
2022/10/08 04:06:41;;;;;;;5.28;4.45;;;;;;;23.90;46.58;97182.91;5033706;28;20021;-40
2022/10/08 04:09:08;;;;;;;6.18;4.75;;;;;;;23.98;46.65;97192.25;5032479;28;20040;-39
2022/10/08 04:11:34;;;;;;;5.22;4.00;;;;;;;23.92;46.76;97187.94;5033294;28;20026;-40
2022/10/08 04:14:00;;;;;;;5.47;4.32;;;;;;;23.88;46.88;97185.41;5033560;28;20028;-38
2022/10/08 04:16:25;;;;;;;7.45;4.80;;;;;;;23.85;46.94;97182.88;5033096;28;20037;-40
2022/10/08 04:18:51;;;;;;;6.38;4.47;;;;;;;23.94;46.76;97182.66;5033353;28;20036;-41
2022/10/08 04:21:18;;;;;;;5.55;4.50;;;;;;;23.91;46.92;97189.94;5033332;28;20053;-40
2022/10/08 04:23:44;;;;;;;7.18;5.20;;;;;;;23.92;46.76;97182.41;5033289;28;20026;-40
2022/10/08 04:26:11;;;;;;;5.65;4.72;;;;;;;23.91;46.80;97184.41;5033166;28;20104;-40
2022/10/08 04:28:38;;;;;;;6.75;5.10;;;;;;;23.93;46.98;97181.16;5033129;28;20036;-38
2022/10/08 04:31:12;;;;;;;7.35;4.72;;;;;;;23.89;46.89;97186.91;5033488;28;20030;-40
2022/10/08 04:33:38;;;;;;;7.60;5.03;;;;;;;23.91;47.18;97183.66;5033374;28;20021;-38
2022/10/08 04:36:08;;;;;;;8.25;4.70;;;;;;;23.90;47.03;97182.91;5031829;28;20048;-40
2022/10/08 04:38:34;;;;;;;6.95;4.88;;;;;;;23.90;47.11;97180.13;5035045;28;20041;-40
2022/10/08 04:41:21;;;;;;;6.65;5.15;;;;;;;23.90;47.22;97185.66;5037208;28;20029;-39
2022/10/08 04:43:46;;;;;;;7.80;5.68;;;;;;;23.95;46.88;97173.09;5037081;28;20032;-39
2022/10/08 04:46:15;;;;;;;6.68;4.82;;;;;;;23.89;46.95;97175.84;5036994;28;20021;-41
2022/10/08 04:48:45;;;;;;;7.57;5.60;;;;;;;23.95;46.88;97173.84;5036875;28;20029;-39
2022/10/08 04:51:10;;;;;;;6.95;5.25;;;;;;;23.96;46.73;97192.00;5036897;28;20036;-39
2022/10/08 04:53:36;;;;;;;8.00;5.30;;;;;;;23.89;47.03;97183.38;5036750;28;20420;-41
2022/10/08 04:56:29;;;;;;;6.10;4.72;;;;;;;23.97;46.75;97181.69;5036648;28;20484;-41
2022/10/08 04:58:56;;;;;;;9.05;5.40;;;;;;;23.92;46.72;97185.16;5036650;28;20107;-37
2022/10/08 05:01:23;;;;;;;5.00;4.50;;;;;;;23.80;47.25;97181.59;5036480;28;20056;-40
2022/10/08 05:03:51;;;;;;;5.95;4.50;;;;;;;23.84;47.15;97179.34;5036917;28;20036;-38
2022/10/08 05:06:19;;;;;;;7.38;4.70;;;;;;;23.93;46.77;97172.84;5036546;28;20072;-41
2022/10/08 05:08:45;;;;;;;6.18;4.55;;;;;;;23.89;46.95;97180.63;5036479;28;20036;-40
2022/10/08 05:11:12;;;;;;;6.93;4.88;;;;;;;23.91;46.99;97167.78;5036513;28;20025;-40
2022/10/08 05:13:38;;;;;;;5.53;4.85;;;;;;;23.91;47.00;97167.78;5036553;28;20021;-41
2022/10/08 05:16:09;;;;;;;7.80;4.85;;;;;;;23.89;46.92;97175.84;5036252;28;20331;-38
2022/10/08 05:18:36;;;;;;;6.07;5.18;;;;;;;23.85;46.99;97178.09;5036367;28;20025;-38
2022/10/08 05:21:10;;;;;;;6.03;5.10;;;;;;;23.87;47.03;97186.66;5036517;28;20061;-41
2022/10/08 05:23:36;;;;;;;6.55;4.97;;;;;;;23.91;46.91;97184.41;5036610;28;20184;-41
2022/10/08 05:26:17;;;;;;;5.45;4.90;;;;;;;23.85;46.82;97186.41;5036063;28;20045;-39
2022/10/08 05:28:45;;;;;;;7.13;5.30;;;;;;;23.84;47.14;97184.91;5036336;28;20025;-40
2022/10/08 05:31:11;;;;;;;7.07;4.65;;;;;;;23.81;47.23;97180.34;5036138;28;20056;-41
2022/10/08 05:33:37;;;;;;;6.97;4.80;;;;;;;23.84;47.12;97182.13;5036419;28;20068;-41
2022/10/08 05:36:05;;;;;;;6.38;4.93;;;;;;;23.89;46.95;97186.91;5035954;28;20104;-40
2022/10/08 05:38:31;;;;;;;7.05;4.95;;;;;;;23.89;46.89;97186.16;5035911;28;20045;-41
2022/10/08 05:41:12;;;;;;;6.63;5.05;;;;;;;23.81;47.13;97191.41;5036001;28;20436;-40
2022/10/08 05:43:38;;;;;;;6.85;4.68;;;;;;;23.87;47.01;97194.97;5035990;28;20061;-41
2022/10/08 05:46:04;;;;;;;5.70;4.50;;;;;;;23.82;47.08;97192.94;5036305;28;20421;-41
2022/10/08 05:48:29;;;;;;;8.65;4.80;;;;;;;23.88;46.95;97190.19;5035634;28;20022;-37
2022/10/08 05:50:55;;;;;;;6.32;4.38;;;;;;;23.76;47.32;97188.63;5034684;28;20071;-38
2022/10/08 05:53:20;;;;;;;6.78;4.30;;;;;;;23.81;46.98;97185.88;5035717;28;20108;-40
2022/10/08 05:55:45;;;;;;;6.00;4.97;;;;;;;23.86;46.86;97189.94;5035506;28;20121;-38
2022/10/08 05:58:11;;;;;;;5.25;4.53;;;;;;;23.77;47.00;97195.66;5035538;28;20029;-38
2022/10/08 06:00:37;;;;;;;7.35;4.88;;;;;;;23.85;46.72;97200.25;5035511;28;20057;-37
2022/10/08 06:03:02;;;;;;;5.50;4.47;;;;;;;23.82;47.09;97197.72;5035475;28;20025;-38
2022/10/08 06:05:28;;;;;;;6.43;4.85;;;;;;;23.87;47.08;97205.28;5035512;28;20049;-39
2022/10/08 06:07:56;;;;;;;5.80;4.63;;;;;;;23.85;47.11;97202.28;5035400;28;20025;-37
2022/10/08 06:10:23;;;;;;;6.07;4.60;;;;;;;23.89;46.86;97203.53;5035697;28;20044;-41
2022/10/08 06:12:49;;;;;;;5.50;4.68;;;;;;;23.91;46.89;97212.13;5035269;28;20029;-41
2022/10/08 06:15:15;;;;;;;6.57;4.28;;;;;;;23.89;46.99;97214.63;5035277;28;20488;-41
2022/10/08 06:17:40;;;;;;;7.32;4.82;;;;;;;23.84;47.34;97212.59;5035466;28;20091;-40
2022/10/08 06:20:06;;;;;;;6.18;4.75;;;;;;;23.77;47.49;97218.59;5027673;28;20048;-41
2022/10/08 06:22:31;;;;;;;5.65;4.43;;;;;;;23.87;47.11;97227.44;5013572;28;20033;-42
2022/10/08 06:24:57;;;;;;;6.88;4.95;;;;;;;23.84;47.08;97223.69;5019235;28;20026;-41
2022/10/08 06:27:22;;;;;;;7.10;5.35;;;;;;;23.89;47.10;97231.25;5033147;28;20028;-40
2022/10/08 06:29:48;;;;;;;7.15;5.20;;;;;;;23.82;47.25;97228.94;5032926;28;20032;-40
2022/10/08 06:32:13;;;;;;;8.48;5.90;;;;;;;23.81;47.47;97221.88;5032634;28;20025;-41
2022/10/08 06:34:40;;;;;;;9.85;6.10;;;;;;;23.80;47.10;97223.16;5031192;28;20021;-40
2022/10/08 06:37:06;;;;;;;8.82;6.10;;;;;;;23.77;47.37;97224.13;5025827;28;20022;-39
2022/10/08 06:39:31;;;;;;;7.22;5.28;;;;;;;23.84;47.16;97222.91;5011481;28;20069;-41
2022/10/08 06:41:57;;;;;;;10.80;6.28;;;;;;;23.82;47.52;97237.25;5013246;28;20033;-41
2022/10/08 06:44:22;;;;;;;9.40;5.57;;;;;;;23.80;47.73;97230.69;5012687;28;20026;-41
2022/10/08 06:46:48;;;;;;;8.35;5.32;;;;;;;23.75;47.69;97232.16;5012883;28;20087;-39
2022/10/08 06:49:13;;;;;;;9.60;6.13;;;;;;;23.91;47.48;97239.81;5012774;28;20029;-38
2022/10/08 06:51:39;;;;;;;9.10;5.65;;;;;;;23.87;47.33;97233.75;5012806;28;20116;-41
2022/10/08 06:54:04;;;;;;;11.30;7.03;;;;;;;23.87;47.41;97230.97;5012252;28;20096;-41
2022/10/08 06:56:30;;;;;;;7.85;6.00;;;;;;;23.89;47.33;97234.00;5012648;28;20037;-38
2022/10/08 06:58:55;;;;;;;8.88;5.60;;;;;;;23.85;47.78;97236.28;5012291;28;20470;-40
2022/10/08 07:01:23;;;;;;;7.63;5.32;;;;;;;23.89;47.35;97236.78;5012502;28;20458;-38
2022/10/08 07:03:51;;;;;;;9.20;5.45;;;;;;;23.86;47.85;97246.06;5012708;28;20105;-41
2022/10/08 07:06:17;;;;;;;8.38;5.70;;;;;;;23.85;47.83;97243.81;5019989;28;20630;-38
2022/10/08 07:08:43;;;;;;;9.90;5.03;;;;;;;23.92;47.39;97241.34;5032405;28;20021;-38
2022/10/08 07:11:14;;;;;;;7.75;5.43;;;;;;;23.83;47.75;97241.53;5032365;28;20456;-41
2022/10/08 07:13:40;;;;;;;11.73;6.85;;;;;;;23.09;49.97;97247.03;5032071;28;20037;-30
2022/10/08 07:16:12;;;;;;;10.63;7.07;;;;;;;23.14;50.22;97251.84;5032520;28;20034;-34
2022/10/08 07:18:39;;;;;;;8.63;5.95;;;;;;;23.39;49.66;97255.06;5032746;28;20462;-34
2022/10/08 07:21:06;;;;;;;10.23;6.03;;;;;;;23.44;49.60;97252.34;5032598;28;20026;-34
2022/10/08 07:23:31;;;;;;;8.75;5.70;;;;;;;23.50;49.12;97261.47;5032678;28;20033;-34
2022/10/08 07:26:03;;;;;;;8.23;5.05;;;;;;;23.51;49.26;97259.44;5032565;28;20469;-34
2022/10/08 07:28:31;;;;;;;5.73;4.70;;;;;;;23.70;48.86;97263.38;5032627;28;20029;-34
2022/10/08 07:31:04;;;;;;;7.65;4.78;;;;;;;23.75;48.35;97262.63;5032182;28;20288;-34
2022/10/08 07:33:30;;;;;;;;;;;;;;;23.83;48.01;97274.03;5030580;28;20092;-34
2022/10/08 07:36:04;;;;;;;5.80;4.53;;;;;;;23.86;48.06;97267.50;5032460;28;19990;-34
2022/10/08 07:38:30;;;;;;;6.35;4.60;;;;;;;23.83;48.32;97266.47;5032471;28;20045;-34
2022/10/08 07:40:55;;;;;;;10.35;4.22;;;;;;;23.82;48.14;97262.19;5032392;28;20025;-34
2022/10/08 07:43:21;;;;;;;7.18;4.50;;;;;;;23.85;48.02;97261.22;5031753;28;20064;-34
2022/10/08 07:45:46;;;;;;;6.13;4.20;;;;;;;23.83;48.09;97263.72;5032305;28;20021;-34
2022/10/08 07:48:12;;;;;;;6.30;3.97;;;;;;;23.82;47.92;97262.19;5030803;28;20030;-34
2022/10/08 07:50:37;;;;;;;6.90;4.50;;;;;;;23.85;48.24;97274.28;5032150;28;20032;-34
2022/10/08 07:53:02;;;;;;;4.95;3.70;;;;;;;23.84;48.21;97272.78;5032085;28;20053;-34
2022/10/08 07:55:28;;;;;;;7.55;4.07;;;;;;;23.82;48.11;97278.06;5031965;28;20112;-34
2022/10/08 07:57:53;;;;;;;4.65;3.50;;;;;;;23.80;48.07;97273.00;5013880;28;20492;-34
2022/10/08 08:00:19;;;;;;;5.45;3.80;;;;;;;23.83;48.07;97277.56;5013403;28;20029;-34
2022/10/08 08:02:47;;;;;;;5.10;4.20;;;;;;;23.86;48.20;97286.91;5013185;28;20026;-34
2022/10/08 08:05:12;;;;;;;6.05;3.92;;;;;;;23.83;48.13;97291.41;5013365;28;20101;-34
2022/10/08 08:07:38;;;;;;;4.90;4.03;;;;;;;23.91;47.93;97286.91;5013894;28;20442;-34
2022/10/08 08:10:03;;;;;;;6.40;4.03;;;;;;;23.86;48.20;97284.13;5013702;28;20022;-34
2022/10/08 08:12:29;;;;;;;5.53;3.85;;;;;;;23.82;48.35;97292.66;5012973;28;20026;-34
2022/10/08 08:14:54;;;;;;;7.10;4.00;;;;;;;23.83;48.37;97290.66;5013445;28;20425;-34
2022/10/08 08:17:20;;;;;;;4.28;3.65;;;;;;;23.82;48.34;97298.19;5013767;28;20371;-34
2022/10/08 08:19:45;;;;;;;5.15;3.65;;;;;;;23.80;48.50;97295.16;5013601;28;20185;-34
2022/10/08 08:22:10;;;;;;;5.75;3.83;;;;;;;23.74;48.20;97297.13;5013591;28;20026;-34
2022/10/08 08:24:36;;;;;;;4.43;3.50;;;;;;;23.59;48.73;97293.75;5013520;28;20030;-34
2022/10/08 08:27:01;;;;;;;4.47;3.88;;;;;;;23.74;48.65;97297.13;5013790;28;20029;-34
2022/10/08 08:29:27;;;;;;;5.40;4.07;;;;;;;23.66;48.50;97295.31;5013489;28;20032;-34
2022/10/08 08:31:52;;;;;;;6.22;3.80;;;;;;;23.70;48.72;97290.31;5013670;28;20057;-34
2022/10/08 08:34:23;;;;;;;6.53;4.05;;;;;;;23.73;48.41;97290.09;5013468;28;20022;-34
2022/10/08 08:36:50;;;;;;;4.85;3.83;;;;;;;23.75;48.78;97295.09;5013699;28;20044;-34
2022/10/08 08:39:22;;;;;;;4.85;3.55;;;;;;;23.58;49.06;97297.78;5013137;28;20061;-35
2022/10/08 08:42:11;;;;;;;5.28;3.38;;;;;;;23.67;48.71;97291.28;5013493;28;20133;-34
2022/10/08 08:44:42;;;;;;;5.78;3.63;;;;;;;23.64;48.54;97290.25;5013314;28;20041;-34
2022/10/08 08:47:39;;;;;;;4.25;3.53;;;;;;;23.76;48.33;97289.09;5013383;28;20057;-34
2022/10/08 08:50:23;;;;;;;4.90;3.35;;;;;;;23.78;47.97;97292.13;5013302;28;20042;-34
2022/10/08 08:52:50;;;;;;;4.30;3.55;;;;;;;23.69;48.37;97292.31;5013394;28;20029;-36
2022/10/08 08:55:28;;;;;;;4.70;3.30;;;;;;;23.71;48.58;97295.34;5013597;28;20470;-36
2022/10/08 08:57:56;;;;;;;4.47;3.10;;;;;;;23.52;48.89;97292.19;5013171;28;20030;-36
2022/10/08 09:00:28;;;;;;;3.78;2.83;;;;;;;23.39;48.79;97294.56;5013246;28;20104;-37
2022/10/08 09:03:00;;;;;;;4.78;3.58;;;;;;;23.63;48.15;97280.44;5011881;28;20425;-36
2022/10/08 09:05:29;;;;;;;4.05;3.28;;;;;;;23.57;48.57;97290.72;5013310;28;20072;-36
2022/10/08 09:08:05;;;;;;;5.18;3.30;;;;;;;23.45;48.88;97289.09;5013563;28;20413;-36
2022/10/08 09:11:01;;;;;;;5.35;3.50;;;;;;;23.59;48.27;97283.44;5011832;28;20409;-37
2022/10/08 09:13:49;;;;;;;5.35;3.20;;;;;;;23.78;47.72;97286.59;5012907;28;20065;-36
2022/10/08 09:16:16;;;;;;;3.22;2.90;;;;;;;23.63;48.52;97285.97;5013354;28;20022;-36
2022/10/08 09:18:50;;;;;;;5.00;3.28;;;;;;;23.63;48.24;97283.97;5013166;28;20096;-36
2022/10/08 09:21:16;;;;;;;4.05;3.20;;;;;;;23.58;48.38;97286.69;5013000;28;20021;-36
2022/10/08 09:23:42;;;;;;;4.55;2.92;;;;;;;23.66;47.89;97295.31;5013574;28;20045;-36
2022/10/08 09:26:07;;;;;;;4.55;3.22;;;;;;;23.51;48.24;97289.91;5016496;28;20026;-36
2022/10/08 09:28:53;;;;;;;3.53;3.00;;;;;;;23.61;48.15;97283.69;5016243;28;20028;-36
2022/10/08 09:31:40;;;;;;;4.22;2.53;;;;;;;23.45;48.37;97286.31;5015256;28;20034;-36
2022/10/08 09:34:09;;;;;;;3.85;3.33;;;;;;;23.69;47.46;97288.78;5016240;28;20025;-36
2022/10/08 09:36:42;;;;;;;4.53;3.08;;;;;;;23.55;47.74;97282.16;5016262;28;20022;-38
2022/10/08 09:39:20;;;;;;;4.97;3.40;;;;;;;23.47;47.90;97292.13;5016247;28;20052;-36
2022/10/08 09:42:02;;;;;;;4.90;3.63;;;;;;;23.69;47.51;97288.78;5016432;28;20026;-36
2022/10/08 09:44:38;;;;;;;4.82;2.58;;;;;;;23.62;47.91;97292.75;5016124;28;20044;-36
2022/10/08 09:47:06;;;;;;;4.03;3.40;;;;;;;23.49;47.80;97289.63;5016362;28;20111;-36
2022/10/08 09:49:33;;;;;;;4.95;2.63;;;;;;;23.62;47.83;97295.53;5016013;28;20026;-36
2022/10/08 09:52:24;;;;;;;3.13;2.70;;;;;;;23.76;47.26;97288.31;5016012;28;20030;-36
2022/10/08 09:55:18;;;;;;;4.38;3.03;;;;;;;23.63;47.19;97289.50;5015886;28;20022;-36
2022/10/08 09:57:50;;;;;;;3.60;2.60;;;;;;;23.43;47.93;97289.56;5014368;28;20087;-36
2022/10/08 10:00:29;;;;;;;4.05;2.38;;;;;;;23.51;46.97;97289.91;5015130;28;20052;-36
2022/10/08 10:02:57;;;;;;;2.55;2.10;;;;;;;23.49;46.31;97286.88;5015941;28;20521;-36
2022/10/08 10:05:29;;;;;;;3.03;2.40;;;;;;;23.69;46.86;97288.78;5015832;28;20044;-36
2022/10/08 10:07:54;;;;;;;3.25;2.10;;;;;;;23.79;46.50;97282.56;5015627;28;20105;-36
2022/10/08 10:10:35;;;;;;;3.30;2.15;;;;;;;23.85;46.41;97285.38;5025577;28;20112;-36
2022/10/08 10:13:12;;;;;;;3.72;2.30;;;;;;;23.52;44.90;97283.13;5019468;28;20037;-36
2022/10/08 10:15:45;;;;;;;1.95;1.65;;;;;;;23.20;41.82;97285.88;5019780;28;20038;-36
2022/10/08 10:18:15;;;;;;;3.03;1.70;;;;;;;23.45;44.25;97275.25;5014751;28;20600;-36
2022/10/08 10:20:51;;;;;;;2.28;2.08;;;;;;;23.54;45.48;97275.09;5014122;28;20517;-36
2022/10/08 10:23:40;;;;;;;3.22;2.28;;;;;;;23.56;46.01;97269.81;5014053;28;20470;-36
2022/10/08 10:26:22;;;;;;;2.67;1.80;;;;;;;23.50;45.65;97266.22;5013894;28;20025;-36
2022/10/08 10:29:03;;;;;;;3.00;1.90;;;;;;;23.57;44.90;97269.34;5013832;28;20045;-36
2022/10/08 10:31:52;;;;;;;2.67;2.33;;;;;;;23.52;44.90;97258.97;5013701;28;20091;-36
2022/10/08 10:34:25;;;;;;;3.50;2.00;;;;;;;23.58;44.74;97270.09;5013755;28;20026;-36
2022/10/08 10:36:56;;;;;;;1.83;1.55;;;;;;;23.52;43.71;97255.44;5013089;28;20021;-36
2022/10/08 10:39:36;;;;;;;1.85;1.75;;;;;;;23.67;45.59;97258.81;5013479;28;20748;-36
2022/10/08 10:42:42;;;;;;;2.75;1.85;;;;;;;23.74;44.96;97261.13;5013568;28;20045;-36
2022/10/08 10:45:18;;;;;;;2.45;1.63;;;;;;;23.76;44.26;97252.31;5013555;28;20421;-36
2022/10/08 10:47:43;;;;;;;3.55;1.90;;;;;;;23.79;44.24;97257.63;5013473;28;20101;-36
2022/10/08 10:50:14;;;;;;;4.45;1.67;;;;;;;23.71;42.41;97250.28;5011583;28;20079;-37
2022/10/08 10:53:00;;;;;;;3.35;1.50;;;;;;;24.43;40.93;97245.09;5012529;28;20037;-36
2022/10/08 10:55:25;;;;;;;2.92;1.73;;;;;;;24.80;40.67;97246.97;5011521;28;20022;-36
2022/10/08 10:58:30;;;;;;;3.30;1.73;;;;;;;25.12;39.75;97239.94;5012821;28;20041;-37
2022/10/08 11:00:58;;;;;;;3.17;1.45;;;;;;;25.28;39.49;97238.44;5012688;28;20084;-36
2022/10/08 11:03:36;;;;;;;2.58;1.40;;;;;;;25.43;39.80;97238.94;5012538;28;20029;-36
2022/10/08 11:06:11;;;;;;;3.10;1.92;;;;;;;25.78;39.07;97241.19;5012334;28;20113;-38
2022/10/08 11:08:45;;;;;;;3.20;1.73;;;;;;;25.64;39.34;97233.88;5012788;28;20516;-37
2022/10/08 11:11:28;;;;;;;1.85;1.40;;;;;;;25.81;39.08;97229.06;5012748;28;20022;-37
2022/10/08 11:14:31;;;;;;;4.05;1.80;;;;;;;26.05;38.96;97226.47;5012567;28;20030;-36
2022/10/08 11:17:04;;;;;;;;;;;;;;;26.05;39.17;97220.91;5012160;28;20046;-37
2022/10/08 11:19:48;;;;;;;5.13;1.70;;;;;;;25.90;39.28;97214.13;5012537;28;19936;-36
2022/10/08 11:22:22;;;;;;;2.25;1.65;;;;;;;25.92;39.21;97208.81;5012471;28;20033;-39
2022/10/08 11:24:50;;;;;;;1.85;1.60;;;;;;;25.89;39.46;97202.25;5012419;28;20492;-37
2022/10/08 11:27:37;;;;;;;2.30;1.70;;;;;;;25.97;39.45;97208.03;5012180;28;20044;-37
2022/10/08 11:30:37;;;;;;;2.20;1.63;;;;;;;25.94;38.95;97209.81;5012011;28;20036;-37
2022/10/08 11:33:04;;;;;;;1.98;1.77;;;;;;;25.98;38.95;97209.53;5012096;28;20022;-37
2022/10/08 11:35:49;;;;;;;1.70;1.50;;;;;;;25.97;39.26;97203.22;5012372;28;20026;-39
2022/10/08 11:38:47;;;;;;;2.10;1.45;;;;;;;25.89;39.14;97199.47;5012103;28;20109;-36
2022/10/08 11:41:39;;;;;;;2.38;1.58;;;;;;;25.85;39.65;97206.53;5009238;28;20052;-37
2022/10/08 11:44:09;;;;;;;1.95;1.45;;;;;;;25.83;39.19;97189.66;5022831;28;20029;-37
2022/10/08 11:46:35;;;;;;;1.75;1.35;;;;;;;25.81;39.66;97189.41;5031514;28;20381;-37
2022/10/08 11:49:12;;;;;;;1.52;1.42;;;;;;;25.81;39.58;97192.19;5014577;28;20120;-37
2022/10/08 11:51:39;;;;;;;2.45;1.30;;;;;;;25.86;39.35;97181.03;5031589;28;20041;-37
2022/10/08 11:54:27;;;;;;;1.73;1.40;;;;;;;25.93;39.55;97186.06;5031623;28;20037;-37